Time;durP1;ratioP1;P1;durP2;ratioP2;P2;SDS_P1;SDS_P2;PMS_P1;PMS_P2;Temp;Humidity;BMP_temperature;BMP_pressure;BME280_temperature;BME280_humidity;BME280_pressure;Samples;Min_cycle;Max_cycle;Signal;HPM_P1;HPM_P2
2022/04/10 00:01:49;;;;;;;;;;;3.10;99.90;;;;;;5010996;28;20445;-68
2022/04/10 00:04:16;;;;;;;;;;;3.10;99.90;;;;;;5005868;28;19956;-67
2022/04/10 00:06:41;;;;;;;;;;;3.10;99.90;;;;;;5008507;28;19929;-67
2022/04/10 00:09:07;;;;;;;;;;;3.10;99.90;;;;;;5014141;28;20291;-67
2022/04/10 00:11:32;;;;;;;;;;;3.00;99.90;;;;;;5015076;28;19922;-69
2022/04/10 00:13:58;;;;;;;;;;;3.30;99.90;;;;;;5011086;28;19964;-66
2022/04/10 00:16:24;;;;;;;;;;;4.50;99.90;;;;;;5020506;28;20332;-68
2022/04/10 00:18:51;;;;;;;;;;;3.00;99.90;;;;;;5013503;28;19936;-68
2022/04/10 00:21:17;;;;;;;;;;;3.00;99.90;;;;;;4997553;28;19922;-67
2022/04/10 00:23:43;;;;;;;;;;;3.00;99.90;;;;;;5009521;28;19921;-69
2022/04/10 00:26:11;;;;;;;;;;;3.00;99.90;;;;;;4998203;28;19952;-67
2022/04/10 00:28:36;;;;;;;;;;;3.00;99.90;;;;;;5014335;28;19921;-68
2022/04/10 00:31:02;;;;;;;;;;;3.00;99.90;;;;;;5000362;28;20299;-68
2022/04/10 00:33:27;;;;;;;;;;;3.10;99.90;;;;;;4996002;28;19976;-68
2022/04/10 00:35:53;;;;;;;;;;;3.70;99.90;;;;;;5005747;28;19928;-67
2022/04/10 00:38:20;;;;;;;;;;;3.10;99.90;;;;;;5011807;28;19988;-67
2022/04/10 00:40:45;;;;;;;;;;;2.90;99.90;;;;;;5013824;28;19921;-68
2022/04/10 00:43:11;;;;;;;;;;;3.10;99.90;;;;;;5012057;28;20292;-67
2022/04/10 00:45:37;;;;;;;;;;;4.20;99.90;;;;;;5013405;28;19921;-68
2022/04/10 00:48:02;;;;;;;;;;;3.10;99.90;;;;;;5014337;28;19980;-68
2022/04/10 00:50:28;;;;;;;;;;;3.10;99.90;;;;;;5013774;28;19921;-67
2022/04/10 00:52:53;;;;;;;;;;;3.10;99.90;;;;;;5013963;28;19928;-67
2022/04/10 00:55:19;;;;;;;;;;;4.50;99.90;;;;;;5004181;28;20398;-67
2022/04/10 00:57:45;;;;;;;;;;;3.40;99.90;;;;;;4994615;28;20291;-67
2022/04/10 01:00:11;;;;;;;;;;;3.10;99.90;;;;;;4995585;28;19972;-67
2022/04/10 01:02:38;;;;;;;;;;;3.10;99.90;;;;;;5013804;28;20395;-68
2022/04/10 01:05:05;;;;;;;;;;;3.00;99.90;;;;;;5010254;28;19946;-67
2022/04/10 01:07:31;;;;;;;;;;;3.10;99.90;;;;;;5014162;28;19928;-68
2022/04/10 01:09:57;;;;;;;;;;;4.90;99.90;;;;;;5014139;28;19925;-67
2022/04/10 01:12:22;;;;;;;;;;;3.10;99.90;;;;;;4996027;28;19931;-67
2022/04/10 01:14:49;;;;;;;;;;;3.10;99.90;;;;;;5010438;28;20000;-67
2022/04/10 01:17:15;;;;;;;;;;;3.30;99.90;;;;;;5023782;28;19921;-67
2022/04/10 01:19:42;;;;;;;;;;;3.40;99.90;;;;;;5027954;28;19930;-68
2022/04/10 01:22:08;;;;;;;;;;;3.00;99.90;;;;;;5010435;28;19928;-67
2022/04/10 01:24:34;;;;;;;;;;;2.90;99.90;;;;;;5004112;28;20300;-67
2022/04/10 01:27:01;;;;;;;;;;;2.90;99.90;;;;;;5009114;28;19928;-68
2022/04/10 01:29:27;;;;;;;;;;;2.90;99.90;;;;;;4999836;28;19929;-67
2022/04/10 01:31:52;;;;;;;;;;;2.90;99.90;;;;;;4998277;28;20382;-65
2022/04/10 01:34:18;;;;;;;;;;;2.90;99.90;;;;;;4998072;28;19926;-68
2022/04/10 01:36:44;;;;;;;;;;;2.80;99.90;;;;;;5010735;28;19972;-67
2022/04/10 01:39:11;;;;;;;;;;;2.80;99.90;;;;;;5012225;28;19925;-68
2022/04/10 01:41:37;;;;;;;;;;;3.80;99.90;;;;;;5007321;28;20011;-69
2022/04/10 01:44:06;;;;;;;;;;;2.90;99.90;;;;;;5012140;28;20012;-67
2022/04/10 01:46:32;;;;;;;;;;;2.80;99.90;;;;;;5007491;28;19944;-67
2022/04/10 01:48:57;;;;;;;;;;;2.80;99.90;;;;;;5007955;28;20025;-68
2022/04/10 01:51:26;;;;;;;;;;;3.30;99.90;;;;;;4998965;28;19921;-69
2022/04/10 01:53:53;;;;;;;;;;;3.10;99.90;;;;;;4993123;28;19976;-67
2022/04/10 01:56:19;;;;;;;;;;;2.80;99.90;;;;;;5005162;28;19929;-68
2022/04/10 01:58:46;;;;;;;;;;;2.80;99.90;;;;;;5000071;28;20339;-68
2022/04/10 02:01:12;;;;;;;;;;;2.90;99.90;;;;;;5002902;28;19925;-67
2022/04/10 02:03:38;;;;;;;;;;;2.90;99.90;;;;;;5007256;28;19922;-67
2022/04/10 02:06:07;;;;;;;;;;;2.90;99.90;;;;;;5011899;28;19938;-67
2022/04/10 02:08:34;;;;;;;;;;;2.90;99.90;;;;;;5000323;28;19926;-67
2022/04/10 02:11:00;;;;;;;;;;;2.90;99.90;;;;;;5009820;28;20016;-66
2022/04/10 02:13:25;;;;;;;;;;;2.80;99.90;;;;;;5010842;28;19961;-67
2022/04/10 02:15:51;;;;;;;;;;;2.80;99.90;;;;;;5002327;28;19921;-69
2022/04/10 02:18:16;;;;;;;;;;;2.80;99.90;;;;;;5006276;28;19921;-67
2022/04/10 02:20:42;;;;;;;;;;;2.90;99.90;;;;;;5010507;28;19921;-66
2022/04/10 02:23:08;;;;;;;;;;;2.80;99.90;;;;;;5007060;28;19925;-67
2022/04/10 02:25:34;;;;;;;;;;;2.90;99.90;;;;;;5001498;28;19968;-67
2022/04/10 02:27:59;;;;;;;;;;;2.80;99.90;;;;;;5020551;28;19922;-66
2022/04/10 02:30:25;;;;;;;;;;;2.90;99.90;;;;;;5004131;28;20398;-67
2022/04/10 02:32:51;;;;;;;;;;;2.90;99.90;;;;;;5003996;28;19921;-67
2022/04/10 02:35:16;;;;;;;;;;;2.80;99.90;;;;;;4994899;28;19928;-68
2022/04/10 02:37:45;;;;;;;;;;;4.10;99.90;;;;;;5005535;28;20261;-67
2022/04/10 02:40:14;;;;;;;;;;;2.90;99.90;;;;;;5000909;28;19921;-67
2022/04/10 02:42:40;;;;;;;;;;;2.80;99.90;;;;;;5007469;28;19922;-67
2022/04/10 02:45:06;;;;;;;;;;;2.80;99.90;;;;;;5009179;28;20015;-66
2022/04/10 02:47:31;;;;;;;;;;;2.80;99.90;;;;;;5010985;28;19979;-69
2022/04/10 02:49:57;;;;;;;;;;;2.80;99.90;;;;;;5005027;28;19922;-67
2022/04/10 02:52:22;;;;;;;;;;;3.60;99.90;;;;;;5016507;28;19925;-67
2022/04/10 02:54:48;;;;;;;;;;;2.80;99.90;;;;;;5012234;28;20333;-67
2022/04/10 02:57:14;;;;;;;;;;;2.80;99.90;;;;;;5017468;28;19921;-67
2022/04/10 02:59:40;;;;;;;;;;;2.90;99.90;;;;;;5014030;28;20351;-67
2022/04/10 03:02:05;;;;;;;;;;;2.90;99.90;;;;;;5014036;28;19948;-67
2022/04/10 03:04:31;;;;;;;;;;;2.80;99.90;;;;;;5014554;28;19921;-67
2022/04/10 03:06:56;;;;;;;;;;;3.30;99.90;;;;;;5018234;28;19927;-67
2022/04/10 03:09:22;;;;;;;;;;;2.70;99.90;;;;;;5012631;28;19948;-67
2022/04/10 03:11:47;;;;;;;;;;;2.70;99.90;;;;;;5003557;28;19976;-67
2022/04/10 03:14:13;;;;;;;;;;;2.60;99.90;;;;;;5014312;28;19961;-68
2022/04/10 03:16:39;;;;;;;;;;;2.60;99.90;;;;;;5022502;28;20290;-67
2022/04/10 03:19:04;;;;;;;;;;;2.70;99.90;;;;;;5004537;28;19921;-68
2022/04/10 03:21:31;;;;;;;;;;;2.70;99.90;;;;;;5014848;28;20027;-66
2022/04/10 03:23:56;;;;;;;;;;;2.70;99.90;;;;;;5018480;28;19975;-68
2022/04/10 03:26:22;;;;;;;;;;;2.70;99.90;;;;;;5016785;28;19929;-67
2022/04/10 03:28:48;;;;;;;;;;;2.80;99.90;;;;;;4999032;28;19917;-68
2022/04/10 03:31:13;;;;;;;;;;;2.70;99.90;;;;;;4999315;28;19922;-67
2022/04/10 03:33:39;;;;;;;;;;;2.70;99.90;;;;;;5015299;28;19926;-68
2022/04/10 03:36:05;;;;;;;;;;;2.70;99.90;;;;;;5016266;28;19929;-67
2022/04/10 03:38:31;;;;;;;;;;;2.70;99.90;;;;;;5025707;28;20322;-68
2022/04/10 03:40:56;;;;;;;;;;;2.70;99.90;;;;;;5017303;28;19921;-68
2022/04/10 03:43:22;;;;;;;;;;;2.70;99.90;;;;;;5012968;28;19928;-68
2022/04/10 03:45:47;;;;;;;;;;;2.80;99.90;;;;;;5015292;28;20024;-67
2022/04/10 03:48:13;;;;;;;;;;;2.80;99.90;;;;;;5010644;28;19921;-67
2022/04/10 03:50:39;;;;;;;;;;;3.20;99.90;;;;;;5016460;28;20344;-68
2022/04/10 03:53:05;;;;;;;;;;;2.90;99.90;;;;;;5018002;28;20375;-67
2022/04/10 03:55:31;;;;;;;;;;;2.90;99.90;;;;;;5014322;28;19921;-67
2022/04/10 03:57:56;;;;;;;;;;;2.90;99.90;;;;;;5010388;28;20383;-68
2022/04/10 04:00:22;;;;;;;;;;;2.90;99.90;;;;;;5013120;28;19936;-67
2022/04/10 04:02:48;;;;;;;;;;;2.90;99.90;;;;;;4994786;28;20348;-67
2022/04/10 04:05:13;;;;;;;;;;;2.90;99.90;;;;;;5009063;28;19922;-67
2022/04/10 04:07:39;;;;;;;;;;;3.60;99.90;;;;;;4999214;28;19922;-66
2022/04/10 04:10:05;;;;;;;;;;;2.90;99.90;;;;;;5006284;28;19928;-67
2022/04/10 04:12:31;;;;;;;;;;;2.90;99.90;;;;;;5012330;28;19921;-67
2022/04/10 04:14:57;;;;;;;;;;;3.00;99.90;;;;;;5008362;28;20398;-67
2022/04/10 04:17:24;;;;;;;;;;;3.00;99.90;;;;;;5009583;28;19921;-68
2022/04/10 04:19:51;;;;;;;;;;;3.00;99.90;;;;;;5000782;28;19921;-68
2022/04/10 04:22:16;;;;;;;;;;;3.10;99.90;;;;;;5001713;28;20285;-68
2022/04/10 04:24:42;;;;;;;;;;;3.10;99.90;;;;;;5010548;28;19941;-67
2022/04/10 04:27:08;;;;;;;;;;;3.20;99.90;;;;;;5014845;28;19929;-67
2022/04/10 04:29:33;;;;;;;;;;;3.10;99.90;;;;;;5011112;28;20023;-67
2022/04/10 04:31:59;;;;;;;;;;;3.10;99.90;;;;;;5014197;28;20268;-67
2022/04/10 04:34:24;;;;;;;;;;;3.10;99.90;;;;;;5013557;28;19968;-68
2022/04/10 04:36:50;;;;;;;;;;;3.00;99.90;;;;;;5012842;28;20153;-67
2022/04/10 04:39:16;;;;;;;;;;;3.00;99.90;;;;;;5013971;28;19928;-68
2022/04/10 04:41:41;;;;;;;;;;;2.90;99.90;;;;;;5009859;28;20328;-66
2022/04/10 04:44:07;;;;;;;;;;;2.80;99.90;;;;;;5009329;28;20370;-66
2022/04/10 04:46:32;;;;;;;;;;;2.80;99.90;;;;;;5007568;28;19944;-67
2022/04/10 04:48:58;;;;;;;;;;;3.10;99.90;;;;;;5014870;28;19928;-66
2022/04/10 04:51:24;;;;;;;;;;;2.70;99.90;;;;;;4996384;28;19921;-68
2022/04/10 04:53:49;;;;;;;;;;;1.80;99.90;;;;;;5008238;28;20312;-67
2022/04/10 04:56:15;;;;;;;;;;;2.60;99.90;;;;;;5001615;28;19922;-67
2022/04/10 04:58:42;;;;;;;;;;;2.60;99.90;;;;;;5010870;28;19996;-68
2022/04/10 05:01:07;;;;;;;;;;;2.60;99.90;;;;;;5011588;28;20022;-68
2022/04/10 05:03:33;;;;;;;;;;;2.90;99.90;;;;;;5003654;28;19921;-66
2022/04/10 05:05:58;;;;;;;;;;;3.30;99.90;;;;;;5012399;28;19922;-66
2022/04/10 05:08:24;;;;;;;;;;;2.60;99.90;;;;;;5013671;28;20075;-67
2022/04/10 05:10:49;;;;;;;;;;;2.50;99.90;;;;;;5012984;28;20401;-68
2022/04/10 05:13:15;;;;;;;;;;;2.50;99.90;;;;;;5002218;28;19922;-69
2022/04/10 05:15:40;;;;;;;;;;;2.50;99.90;;;;;;5009378;28;19922;-66
2022/04/10 05:18:06;;;;;;;;;;;2.50;99.90;;;;;;5014151;28;19928;-67
2022/04/10 05:20:32;;;;;;;;;;;2.50;99.90;;;;;;5012752;28;20012;-68
2022/04/10 05:22:57;;;;;;;;;;;2.50;99.90;;;;;;5016581;28;19921;-68
2022/04/10 05:25:23;;;;;;;;;;;3.50;99.90;;;;;;5006099;28;20339;-68
2022/04/10 05:27:48;;;;;;;;;;;2.70;99.90;;;;;;5012560;28;20011;-67
2022/04/10 05:30:14;;;;;;;;;;;2.70;99.90;;;;;;5005758;28;19922;-67
2022/04/10 05:32:42;;;;;;;;;;;2.70;99.90;;;;;;5008237;28;19929;-65
2022/04/10 05:35:09;;;;;;;;;;;3.40;99.90;;;;;;5013086;28;19928;-68
2022/04/10 05:37:34;;;;;;;;;;;2.80;99.90;;;;;;4998341;28;19929;-67
2022/04/10 05:40:00;;;;;;;;;;;2.90;99.90;;;;;;5013495;28;19976;-67
2022/04/10 05:42:26;;;;;;;;;;;2.80;99.90;;;;;;5008408;28;19974;-67
2022/04/10 05:44:51;;;;;;;;;;;3.00;99.90;;;;;;5012115;28;19975;-67
2022/04/10 05:47:18;;;;;;;;;;;3.00;99.90;;;;;;5026340;28;19982;-67
2022/04/10 05:49:44;;;;;;;;;;;3.10;99.90;;;;;;5012465;28;20009;-68
2022/04/10 05:52:09;;;;;;;;;;;3.30;99.90;;;;;;5009388;28;19968;-67
2022/04/10 05:54:35;;;;;;;;;;;3.10;99.90;;;;;;5011897;28;19929;-67
2022/04/10 05:57:00;;;;;;;;;;;3.10;99.90;;;;;;5005446;28;19922;-68
2022/04/10 05:59:26;;;;;;;;;;;3.10;99.90;;;;;;5013226;28;19922;-68
2022/04/10 06:01:52;;;;;;;;;;;3.10;99.90;;;;;;5002029;28;19922;-68
2022/04/10 06:04:18;;;;;;;;;;;3.10;99.90;;;;;;5025042;28;19968;-67
2022/04/10 06:06:43;;;;;;;;;;;3.10;99.90;;;;;;5007282;28;19972;-68
2022/04/10 06:09:09;;;;;;;;;;;3.30;99.90;;;;;;4995660;28;19968;-67
2022/04/10 06:11:34;;;;;;;;;;;3.60;99.90;;;;;;5001846;28;19929;-67
2022/04/10 06:14:00;;;;;;;;;;;3.70;99.90;;;;;;5004664;28;19926;-67
2022/04/10 06:16:26;;;;;;;;;;;3.70;99.90;;;;;;5007675;28;19921;-67
2022/04/10 06:18:51;;;;;;;;;;;3.80;99.90;;;;;;5010783;28;19925;-68
2022/04/10 06:21:17;;;;;;;;;;;4.00;99.90;;;;;;5004747;28;19945;-68
2022/04/10 06:23:42;;;;;;;;;;;3.60;99.90;;;;;;5005003;28;19921;-69
2022/04/10 06:26:08;;;;;;;;;;;3.50;99.90;;;;;;4999087;28;19922;-68
2022/04/10 06:28:33;;;;;;;;;;;3.50;99.90;;;;;;5001243;28;19921;-68
2022/04/10 06:30:59;;;;;;;;;;;3.70;99.90;;;;;;5007128;28;19975;-69
2022/04/10 06:33:24;;;;;;;;;;;4.00;99.90;;;;;;5012138;28;19925;-69
2022/04/10 06:35:50;;;;;;;;;;;3.50;99.90;;;;;;5012518;28;19932;-69
2022/04/10 06:38:15;;;;;;;;;;;3.60;99.90;;;;;;4998302;28;19965;-68
2022/04/10 06:40:41;;;;;;;;;;;3.90;99.90;;;;;;4992075;28;19961;-68
2022/04/10 06:43:07;;;;;;;;;;;4.40;99.90;;;;;;4995200;28;20423;-68
2022/04/10 06:45:33;;;;;;;;;;;4.90;99.90;;;;;;4993447;28;19928;-68
2022/04/10 06:47:58;;;;;;;;;;;5.40;99.90;;;;;;5027369;28;19922;-68
2022/04/10 06:50:24;;;;;;;;;;;5.90;99.90;;;;;;5009471;28;21371;-68
2022/04/10 06:52:49;;;;;;;;;;;6.30;99.90;;;;;;5017056;28;19922;-66
2022/04/10 06:55:15;;;;;;;;;;;6.70;99.90;;;;;;5006324;28;19941;-68
2022/04/10 06:57:41;;;;;;;;;;;6.90;99.90;;;;;;5007030;28;20299;-67
2022/04/10 07:00:07;;;;;;;;;;;7.00;99.90;;;;;;5010323;28;19921;-67
2022/04/10 07:02:33;;;;;;;;;;;6.90;99.90;;;;;;4993425;28;19921;-67
2022/04/10 07:04:58;;;;;;;;;;;6.80;99.90;;;;;;5008354;28;19922;-67
2022/04/10 07:07:24;;;;;;;;;;;6.70;99.90;;;;;;5024459;28;20249;-67
2022/04/10 07:09:49;;;;;;;;;;;6.80;99.90;;;;;;5008043;28;19921;-66
2022/04/10 07:12:15;;;;;;;;;;;6.80;99.90;;;;;;5005809;28;19975;-67
2022/04/10 07:14:40;;;;;;;;;;;6.70;99.90;;;;;;5004843;28;19921;-67
2022/04/10 07:17:06;;;;;;;;;;;6.30;99.90;;;;;;4994079;28;19979;-67
2022/04/10 07:19:36;;;;;;;;;;;6.00;99.90;;;;;;5013226;28;19972;-67
2022/04/10 07:24:46;;;;;;;;;;;5.80;99.90;;;;;;5009875;28;19922;-66
2022/04/10 07:27:11;;;;;;;;;;;5.80;99.90;;;;;;4998221;28;20012;-65
2022/04/10 07:29:37;;;;;;;;;;;5.60;99.90;;;;;;5007691;28;19928;-66
2022/04/10 07:32:04;;;;;;;;;;;6.00;99.90;;;;;;5007481;28;19921;-67
2022/04/10 07:34:29;;;;;;;;;;;5.80;99.90;;;;;;5010307;28;19917;-66
2022/04/10 07:36:55;;;;;;;;;;;6.10;99.90;;;;;;4996723;28;20020;-67
2022/04/10 07:39:20;;;;;;;;;;;6.40;99.90;;;;;;5012781;28;19921;-69
2022/04/10 07:41:46;;;;;;;;;;;6.60;99.90;;;;;;5004034;28;19922;-67
2022/04/10 07:44:12;;;;;;;;;;;6.70;99.90;;;;;;5009424;28;19921;-67
2022/04/10 07:49:23;;;;;;;;;;;6.90;99.90;;;;;;5002406;28;19922;-65
2022/04/10 07:51:50;;;;;;;;;;;7.60;99.90;;;;;;4999309;28;19922;-66
2022/04/10 07:54:17;;;;;;;;;;;7.10;99.90;;;;;;5007848;28;19921;-65
2022/04/10 07:56:44;;;;;;;;;;;7.10;99.90;;;;;;5010043;28;19921;-65
2022/04/10 07:59:11;;;;;;;;;;;7.10;99.90;;;;;;5005007;28;19944;-67
2022/04/10 08:01:37;;;;;;;;;;;7.00;99.90;;;;;;5028242;28;20009;-67
2022/04/10 08:04:03;;;;;;;;;;;7.30;99.90;;;;;;4995725;28;19921;-68
2022/04/10 08:06:28;;;;;;;;;;;7.10;99.90;;;;;;5012890;28;19928;-66
2022/04/10 08:08:54;;;;;;;;;;;7.20;99.90;;;;;;5025627;28;20390;-66
2022/04/10 08:11:19;;;;;;;;;;;7.40;99.90;;;;;;5008600;28;19921;-67
2022/04/10 08:13:45;;;;;;;;;;;8.80;99.90;;;;;;5013743;28;20305;-66
2022/04/10 08:16:11;;;;;;;;;;;7.60;99.90;;;;;;5021638;28;19975;-66
2022/04/10 08:18:36;;;;;;;;;;;7.60;99.90;;;;;;5000515;28;19929;-67
2022/04/10 08:21:02;;;;;;;;;;;7.90;99.90;;;;;;5014276;28;19990;-67
2022/04/10 08:23:27;;;;;;;;;;;7.90;99.90;;;;;;5014273;28;19928;-66
2022/04/10 08:25:53;;;;;;;;;;;7.90;99.90;;;;;;5009929;28;19972;-67
2022/04/10 08:28:19;;;;;;;;;;;8.10;99.90;;;;;;5002846;28;19921;-67
2022/04/10 08:30:44;;;;;;;;;;;7.90;99.90;;;;;;5004009;28;19922;-66
2022/04/10 08:33:10;;;;;;;;;;;7.90;99.90;;;;;;5008066;28;20271;-67
2022/04/10 08:35:35;;;;;;;;;;;7.60;99.90;;;;;;5003328;28;20275;-66
2022/04/10 08:38:01;;;;;;;;;;;7.70;99.90;;;;;;5014722;28;19925;-66
2022/04/10 08:40:28;;;;;;;;;;;7.90;99.90;;;;;;5014157;28;19921;-66
2022/04/10 08:42:53;;;;;;;;;;;8.10;99.90;;;;;;5014049;28;19929;-67
2022/04/10 08:45:25;;;;;;;;;;;8.30;99.90;;;;;;5012608;28;19967;-66
2022/04/10 08:47:52;;;;;;;;;;;8.30;99.90;;;;;;5009974;28;20440;-66
2022/04/10 08:50:18;;;;;;;;;;;8.30;99.90;;;;;;5014561;28;19925;-66
2022/04/10 08:52:43;;;;;;;;;;;8.40;99.90;;;;;;5009170;28;19921;-66
2022/04/10 08:55:09;;;;;;;;;;;8.50;99.90;;;;;;5015291;28;19921;-66
2022/04/10 08:57:35;;;;;;;;;;;8.50;99.90;;;;;;5005751;28;19926;-66
2022/04/10 09:00:00;;;;;;;;;;;8.60;99.90;;;;;;5013768;28;19944;-65
2022/04/10 09:02:26;;;;;;;;;;;8.70;99.90;;;;;;5006463;28;19922;-66
2022/04/10 09:04:52;;;;;;;;;;;9.30;99.90;;;;;;5007665;28;19921;-66
2022/04/10 09:07:17;;;;;;;;;;;8.70;99.90;;;;;;5011539;28;20367;-65
2022/04/10 09:09:51;;;;;;;;;;;8.50;99.90;;;;;;5000410;28;20421;-65
2022/04/10 09:12:18;;;;;;;;;;;8.50;99.90;;;;;;4995437;28;19922;-65
2022/04/10 09:14:44;;;;;;;;;;;8.40;99.90;;;;;;5012911;28;19925;-66
2022/04/10 09:17:12;;;;;;;;;;;8.40;99.90;;;;;;5005135;28;20371;-66
2022/04/10 09:19:39;;;;;;;;;;;8.60;99.90;;;;;;5011165;28;19957;-65
2022/04/10 09:22:19;;;;;;;;;;;8.70;99.90;;;;;;5010032;28;20419;-67
2022/04/10 09:25:01;;;;;;;;;;;8.80;99.90;;;;;;5001953;28;19928;-65
2022/04/10 09:27:31;;;;;;;;;;;8.80;99.90;;;;;;5004517;28;20367;-66
2022/04/10 09:29:57;;;;;;;;;;;8.90;99.90;;;;;;5005424;28;19921;-66
2022/04/10 09:32:22;;;;;;;;;;;9.10;99.90;;;;;;5007949;28;19948;-66
2022/04/10 09:34:57;;;;;;;;;;;9.20;99.90;;;;;;5014577;28;19952;-66
2022/04/10 09:37:23;;;;;;;;;;;9.40;99.90;;;;;;5004131;28;19983;-66
2022/04/10 09:39:48;;;;;;;;;;;9.40;99.90;;;;;;5002580;28;19929;-66
2022/04/10 09:42:14;;;;;;;;;;;9.50;99.90;;;;;;4998932;28;20501;-67
2022/04/10 09:44:40;;;;;;;;;;;9.60;99.50;;;;;;5004411;28;20295;-66
2022/04/10 09:47:06;;;;;;;;;;;9.50;99.90;;;;;;5001296;28;19926;-67
2022/04/10 09:49:32;;;;;;;;;;;9.20;99.90;;;;;;4993087;28;20000;-65
2022/04/10 09:52:01;;;;;;;;;;;9.20;99.90;;;;;;4996802;28;19926;-65
2022/04/10 09:54:32;;;;;;;;;;;9.10;99.90;;;;;;5000572;28;19921;-67
2022/04/10 09:57:00;;;;;;;;;;;9.50;99.90;;;;;;4998854;28;20257;-67
2022/04/10 09:59:27;;;;;;;;;;;9.10;99.90;;;;;;4990328;28;19933;-66
2022/04/10 10:01:53;;;;;;;;;;;9.10;99.90;;;;;;5002037;28;19933;-67
2022/04/10 10:04:19;;;;;;;;;;;9.30;99.90;;;;;;4995226;28;20048;-66
2022/04/10 10:06:45;;;;;;;;;;;9.60;99.90;;;;;;5003009;28;19964;-67
2022/04/10 10:09:11;;;;;;;;;;;9.80;99.90;;;;;;5006203;28;19979;-67
2022/04/10 10:11:37;;;;;;;;;;;10.10;99.90;;;;;;5003292;28;19926;-66
2022/04/10 10:14:03;;;;;;;;;;;10.30;99.90;;;;;;5019038;28;19944;-66
2022/04/10 10:16:29;;;;;;;;;;;10.20;99.90;;;;;;5021576;28;19972;-68
2022/04/10 10:18:54;;;;;;;;;;;10.00;99.90;;;;;;5021301;28;20600;-67
2022/04/10 10:21:20;;;;;;;;;;;9.80;99.90;;;;;;5005848;28;20275;-67
2022/04/10 10:23:48;;;;;;;;;;;10.10;99.90;;;;;;4999836;28;20353;-65
2022/04/10 10:26:33;;;;;;;;;;;10.20;99.90;;;;;;4998195;28;19925;-67
2022/04/10 10:29:05;;;;;;;;;;;10.20;99.90;;;;;;5005154;28;19922;-67
2022/04/10 10:31:43;;;;;;;;;;;10.40;99.10;;;;;;4996419;28;19925;-66
2022/04/10 10:34:09;;;;;;;;;;;10.60;98.40;;;;;;4991221;28;19996;-65
2022/04/10 10:36:35;;;;;;;;;;;10.70;97.70;;;;;;5004577;28;19925;-66
2022/04/10 10:39:03;;;;;;;;;;;11.00;98.10;;;;;;5018047;28;19928;-66
2022/04/10 10:41:30;;;;;;;;;;;11.10;97.50;;;;;;5010386;28;19931;-66
2022/04/10 10:43:56;;;;;;;;;;;11.00;98.20;;;;;;4998206;28;19925;-66
2022/04/10 10:46:21;;;;;;;;;;;11.30;98.00;;;;;;5010217;28;19932;-66
2022/04/10 10:48:47;;;;;;;;;;;11.20;98.00;;;;;;5000183;28;19968;-66
2022/04/10 10:51:16;;;;;;;;;;;11.40;96.70;;;;;;4989634;28;19932;-67
2022/04/10 10:53:44;;;;;;;;;;;11.70;95.70;;;;;;5007569;28;19926;-67
2022/04/10 10:56:19;;;;;;;;;;;11.90;96.00;;;;;;4993196;28;20020;-67
2022/04/10 10:58:46;;;;;;;;;;;12.20;94.80;;;;;;5005923;28;19975;-65
2022/04/10 11:01:18;;;;;;;;;;;12.20;94.60;;;;;;5004086;28;19930;-66
2022/04/10 11:03:59;;;;;;;;;;;12.10;93.40;;;;;;5010289;28;20028;-67
2022/04/10 11:06:27;;;;;;;;;;;12.20;93.70;;;;;;5012811;28;19929;-66
2022/04/10 11:08:53;;;;;;;;;;;12.10;92.10;;;;;;5011990;28;19926;-66
2022/04/10 11:11:19;;;;;;;;;;;12.50;92.60;;;;;;5012733;28;19932;-67
2022/04/10 11:13:46;;;;;;;;;;;12.90;92.00;;;;;;5008902;28;20283;-67
2022/04/10 11:16:13;;;;;;;;;;;13.20;90.00;;;;;;5009330;28;20459;-66
2022/04/10 11:18:42;;;;;;;;;;;13.50;88.70;;;;;;5008878;28;20276;-67
2022/04/10 11:21:10;;;;;;;;;;;13.50;87.60;;;;;;5022814;28;19956;-67
2022/04/10 11:23:39;;;;;;;;;;;13.30;84.40;;;;;;4999823;28;19932;-67
2022/04/10 11:26:08;;;;;;;;;;;13.00;85.50;;;;;;5001657;28;20343;-67
2022/04/10 11:28:54;;;;;;;;;;;13.10;85.40;;;;;;4995988;28;20276;-66
2022/04/10 11:31:38;;;;;;;;;;;13.00;82.50;;;;;;5007253;28;19925;-67
2022/04/10 11:34:07;;;;;;;;;;;12.90;82.90;;;;;;5010989;28;19926;-67
2022/04/10 11:36:50;;;;;;;;;;;12.50;85.00;;;;;;5011067;28;19925;-67
2022/04/10 11:39:18;;;;;;;;;;;12.10;84.20;;;;;;5012787;28;20381;-67
2022/04/10 11:41:44;;;;;;;;;;;11.70;85.20;;;;;;5012544;28;19925;-68
2022/04/10 11:44:09;;;;;;;;;;;11.90;88.10;;;;;;5012663;28;19925;-67
2022/04/10 11:46:36;;;;;;;;;;;11.80;87.90;;;;;;5011903;28;19971;-65
2022/04/10 11:49:03;;;;;;;;;;;11.70;87.90;;;;;;4993991;28;20432;-67
2022/04/10 11:51:29;;;;;;;;;;;11.50;88.30;;;;;;4993538;28;20309;-66
2022/04/10 11:53:58;;;;;;;;;;;11.50;88.60;;;;;;4991928;28;19968;-66
2022/04/10 11:56:23;;;;;;;;;;;11.20;87.50;;;;;;5009378;28;19979;-67
2022/04/10 11:58:49;;;;;;;;;;;11.20;91.10;;;;;;5009038;28;19925;-67
2022/04/10 12:01:15;;;;;;;;;;;11.70;90.60;;;;;;5009109;28;19925;-67
2022/04/10 12:03:41;;;;;;;;;;;12.20;91.40;;;;;;5011563;28;20387;-67
2022/04/10 12:06:09;;;;;;;;;;;12.40;87.00;;;;;;5023386;28;19925;-67
2022/04/10 12:08:35;;;;;;;;;;;12.40;89.10;;;;;;5032246;28;19925;-67
2022/04/10 12:11:01;;;;;;;;;;;12.80;89.40;;;;;;4994534;28;20346;-67
2022/04/10 12:13:27;;;;;;;;;;;13.00;84.20;;;;;;4992957;28;19933;-66
2022/04/10 12:15:59;;;;;;;;;;;13.20;85.60;;;;;;4993231;28;19926;-65
2022/04/10 12:18:26;;;;;;;;;;;13.20;84.60;;;;;;4992186;28;19929;-65
2022/04/10 12:20:57;;;;;;;;;;;13.60;82.40;;;;;;5000680;28;19978;-66
2022/04/10 12:23:26;;;;;;;;;;;13.90;79.80;;;;;;5001668;28;19921;-67
2022/04/10 12:25:54;;;;;;;;;;;13.60;82.10;;;;;;5001592;28;20427;-67
2022/04/10 12:28:21;;;;;;;;;;;13.20;84.00;;;;;;5000888;28;20059;-66
2022/04/10 12:30:47;;;;;;;;;;;12.80;85.20;;;;;;4999214;28;20334;-67
2022/04/10 12:33:13;;;;;;;;;;;12.90;84.10;;;;;;5009226;28;20311;-66
2022/04/10 12:35:39;;;;;;;;;;;13.40;85.00;;;;;;5010037;28;19925;-67
2022/04/10 12:38:10;;;;;;;;;;;13.90;82.70;;;;;;5003152;28;20020;-66
2022/04/10 12:40:39;;;;;;;;;;;13.80;80.90;;;;;;4999843;28;20286;-67
2022/04/10 12:43:05;;;;;;;;;;;13.00;84.10;;;;;;5007518;28;19933;-66
2022/04/10 12:45:32;;;;;;;;;;;12.20;86.60;;;;;;5007906;28;19925;-67
2022/04/10 12:47:58;;;;;;;;;;;12.00;86.50;;;;;;5003512;28;19925;-67
2022/04/10 12:50:24;;;;;;;;;;;12.10;88.20;;;;;;5009238;28;20515;-67
2022/04/10 12:52:52;;;;;;;;;;;12.60;88.60;;;;;;5010849;28;20016;-67
2022/04/10 12:55:19;;;;;;;;;;;12.70;84.10;;;;;;5006524;28;19925;-66
2022/04/10 12:57:59;;;;;;;;;;;12.90;84.80;;;;;;5002056;28;19948;-66
2022/04/10 13:00:29;;;;;;;;;;;13.10;83.10;;;;;;5005672;28;19926;-66
2022/04/10 13:02:55;;;;;;;;;;;13.40;83.20;;;;;;5005467;28;19925;-67
2022/04/10 13:05:21;;;;;;;;;;;13.20;83.30;;;;;;5004002;28;19978;-66
2022/04/10 13:08:02;;;;;;;;;;;13.00;81.70;;;;;;5007994;28;19925;-67
2022/04/10 13:10:28;;;;;;;;;;;12.90;83.50;;;;;;4994888;28;19960;-66
2022/04/10 13:13:03;;;;;;;;;;;13.00;83.60;;;;;;4992213;28;19976;-67
2022/04/10 13:15:30;;;;;;;;;;;13.30;84.10;;;;;;5010764;28;19928;-66
2022/04/10 13:17:57;;;;;;;;;;;14.00;80.90;;;;;;5002029;28;19925;-67
2022/04/10 13:20:26;;;;;;;;;;;14.10;84.70;;;;;;5000452;28;19933;-67
2022/04/10 13:22:51;;;;;;;;;;;14.30;78.60;;;;;;5006084;28;19931;-67
2022/04/10 13:25:17;;;;;;;;;;;14.60;76.40;;;;;;5009977;28;20024;-66
2022/04/10 13:27:42;;;;;;;;;;;14.30;75.50;;;;;;5001861;28;19929;-67
2022/04/10 13:30:10;;;;;;;;;;;14.20;73.20;;;;;;5007687;28;19933;-66
2022/04/10 13:32:36;;;;;;;;;;;14.00;76.50;;;;;;5006128;28;20398;-67
2022/04/10 13:35:01;;;;;;;;;;;14.00;76.90;;;;;;5004632;28;19929;-67
2022/04/10 13:37:27;;;;;;;;;;;14.20;81.50;;;;;;5008942;28;19991;-67
2022/04/10 13:39:53;;;;;;;;;;;14.70;80.30;;;;;;5007495;28;20299;-67
2022/04/10 13:42:20;;;;;;;;;;;15.20;78.30;;;;;;5005720;28;20316;-68
2022/04/10 13:44:51;;;;;;;;;;;15.60;75.30;;;;;;5006583;28;19925;-67
2022/04/10 13:47:17;;;;;;;;;;;15.80;73.20;;;;;;4999606;28;19980;-67
2022/04/10 13:49:42;;;;;;;;;;;15.80;73.00;;;;;;5001789;28;19929;-67
2022/04/10 13:52:08;;;;;;;;;;;15.80;74.40;;;;;;5009636;28;19933;-66
2022/04/10 13:54:34;;;;;;;;;;;15.60;70.30;;;;;;5006971;28;19940;-66
2022/04/10 13:57:00;;;;;;;;;;;15.20;70.10;;;;;;4999479;28;19925;-66
2022/04/10 13:59:25;;;;;;;;;;;14.70;71.30;;;;;;4997574;28;19921;-66
2022/04/10 14:01:51;;;;;;;;;;;13.90;72.70;;;;;;4999949;28;20276;-66
2022/04/10 14:04:17;;;;;;;;;;;13.30;77.00;;;;;;4994088;28;19929;-67
2022/04/10 14:06:43;;;;;;;;;;;13.00;76.70;;;;;;5005980;28;19948;-68
2022/04/10 14:09:08;;;;;;;;;;;12.50;77.70;;;;;;5002542;28;19929;-67
2022/04/10 14:11:34;;;;;;;;;;;12.20;79.70;;;;;;4996090;28;19925;-66
2022/04/10 14:14:00;;;;;;;;;;;12.00;81.00;;;;;;4992450;28;19932;-67
2022/04/10 14:16:28;;;;;;;;;;;11.70;84.80;;;;;;4997536;28;20604;-67
2022/04/10 14:18:54;;;;;;;;;;;11.70;82.90;;;;;;5014860;28;20040;-68
2022/04/10 14:21:23;;;;;;;;;;;11.60;83.30;;;;;;5005364;28;19984;-66
2022/04/10 14:23:48;;;;;;;;;;;11.40;82.10;;;;;;5000622;28;19995;-67
2022/04/10 14:26:14;;;;;;;;;;;11.20;84.40;;;;;;4999810;28;19925;-67
2022/04/10 14:28:40;;;;;;;;;;;11.10;85.70;;;;;;5008002;28;19925;-66